sensor_id;sensor_type;location;lat;lon;timestamp;pressure;altitude;pressure_sealevel;temperature;humidity
77975;BME280;67164;51.202;0.278;2023-07-22T00:00:29;101162.23;;;24.93;41.71
77975;BME280;67164;51.202;0.278;2023-07-22T00:02:54;101161.71;;;24.94;41.56
77975;BME280;67164;51.202;0.278;2023-07-22T00:05:20;101158.73;;;24.66;41.70
77975;BME280;67164;51.202;0.278;2023-07-22T00:07:46;101163.91;;;24.85;41.78
77975;BME280;67164;51.202;0.278;2023-07-22T00:10:11;101163.73;;;24.87;41.72
77975;BME280;67164;51.202;0.278;2023-07-22T00:12:37;101163.86;;;24.84;41.72
77975;BME280;67164;51.202;0.278;2023-07-22T00:15:03;101164.35;;;24.59;41.77
77975;BME280;67164;51.202;0.278;2023-07-22T00:17:28;101159.77;;;24.90;41.63
77975;BME280;67164;51.202;0.278;2023-07-22T00:19:54;101159.18;;;24.60;41.75
77975;BME280;67164;51.202;0.278;2023-07-22T00:22:21;101158.98;;;24.77;41.80
77975;BME280;67164;51.202;0.278;2023-07-22T00:24:45;101155.01;;;24.49;41.90
77975;BME280;67164;51.202;0.278;2023-07-22T00:27:11;101147.97;;;25.02;41.82
77975;BME280;67164;51.202;0.278;2023-07-22T00:29:37;101144.09;;;24.77;41.78
77975;BME280;67164;51.202;0.278;2023-07-22T00:32:04;101145.65;;;24.84;41.74
77975;BME280;67164;51.202;0.278;2023-07-22T00:34:28;101143.28;;;24.48;41.82
77975;BME280;67164;51.202;0.278;2023-07-22T00:36:54;101140.44;;;24.52;41.72
77975;BME280;67164;51.202;0.278;2023-07-22T00:39:20;101138.90;;;24.50;41.75
77975;BME280;67164;51.202;0.278;2023-07-22T00:41:46;101139.54;;;24.80;41.55
77975;BME280;67164;51.202;0.278;2023-07-22T00:44:12;101134.97;;;24.77;41.63
77975;BME280;67164;51.202;0.278;2023-07-22T00:46:37;101136.51;;;24.52;41.72
77975;BME280;67164;51.202;0.278;2023-07-22T00:49:04;101139.15;;;24.75;41.63
77975;BME280;67164;51.202;0.278;2023-07-22T00:51:29;101141.41;;;24.75;41.45
77975;BME280;67164;51.202;0.278;2023-07-22T00:53:54;101142.54;;;24.95;41.53
77975;BME280;67164;51.202;0.278;2023-07-22T00:56:20;101140.72;;;24.78;41.53
77975;BME280;67164;51.202;0.278;2023-07-22T00:58:46;101136.83;;;24.48;41.53
77975;BME280;67164;51.202;0.278;2023-07-22T01:01:12;101137.43;;;24.45;41.62
77975;BME280;67164;51.202;0.278;2023-07-22T01:03:37;101137.46;;;24.73;41.46
77975;BME280;67164;51.202;0.278;2023-07-22T01:06:03;101133.91;;;24.48;41.49
77975;BME280;67164;51.202;0.278;2023-07-22T01:08:29;101130.56;;;24.55;41.31
77975;BME280;67164;51.202;0.278;2023-07-22T01:10:55;101125.06;;;24.62;41.66
77975;BME280;67164;51.202;0.278;2023-07-22T01:13:21;101121.06;;;24.51;41.47
77975;BME280;67164;51.202;0.278;2023-07-22T01:15:47;101116.33;;;24.40;41.49
77975;BME280;67164;51.202;0.278;2023-07-22T01:18:12;101112.80;;;24.32;41.67
77975;BME280;67164;51.202;0.278;2023-07-22T01:20:38;101110.14;;;24.73;41.35
77975;BME280;67164;51.202;0.278;2023-07-22T01:23:04;101114.21;;;24.63;41.32
77975;BME280;67164;51.202;0.278;2023-07-22T01:25:30;101112.57;;;24.63;41.33
77975;BME280;67164;51.202;0.278;2023-07-22T01:27:55;101109.45;;;24.98;41.14
77975;BME280;67164;51.202;0.278;2023-07-22T01:30:21;101106.03;;;24.64;41.39
77975;BME280;67164;51.202;0.278;2023-07-22T01:32:47;101105.14;;;24.95;41.13
77975;BME280;67164;51.202;0.278;2023-07-22T01:35:13;101100.62;;;24.34;41.33
77975;BME280;67164;51.202;0.278;2023-07-22T01:37:39;101098.23;;;24.49;41.52
77975;BME280;67164;51.202;0.278;2023-07-22T01:40:05;101102.26;;;24.45;41.21
77975;BME280;67164;51.202;0.278;2023-07-22T01:42:30;101101.80;;;24.82;41.21
77975;BME280;67164;51.202;0.278;2023-07-22T01:44:56;101100.70;;;24.68;41.08
77975;BME280;67164;51.202;0.278;2023-07-22T01:47:22;101097.73;;;24.26;41.43
77975;BME280;67164;51.202;0.278;2023-07-22T01:49:48;101096.20;;;24.56;41.26
77975;BME280;67164;51.202;0.278;2023-07-22T01:52:13;101098.24;;;24.83;41.28
77975;BME280;67164;51.202;0.278;2023-07-22T01:54:39;101095.57;;;24.36;41.35
77975;BME280;67164;51.202;0.278;2023-07-22T01:57:06;101093.66;;;24.79;41.30
77975;BME280;67164;51.202;0.278;2023-07-22T01:59:31;101094.10;;;24.26;41.36
77975;BME280;67164;51.202;0.278;2023-07-22T02:01:57;101092.94;;;24.62;41.55
77975;BME280;67164;51.202;0.278;2023-07-22T02:04:22;101088.83;;;24.48;41.28
77975;BME280;67164;51.202;0.278;2023-07-22T02:06:48;101088.60;;;24.67;41.39
77975;BME280;67164;51.202;0.278;2023-07-22T02:09:14;101086.08;;;24.52;41.16
77975;BME280;67164;51.202;0.278;2023-07-22T02:11:40;101080.04;;;24.20;41.28
77975;BME280;67164;51.202;0.278;2023-07-22T02:14:05;101078.35;;;24.38;41.27
77975;BME280;67164;51.202;0.278;2023-07-22T02:16:31;101080.42;;;24.41;41.44
77975;BME280;67164;51.202;0.278;2023-07-22T02:18:57;101076.06;;;24.13;41.59
77975;BME280;67164;51.202;0.278;2023-07-22T02:21:23;101077.43;;;24.46;41.39
77975;BME280;67164;51.202;0.278;2023-07-22T02:23:49;101072.74;;;24.46;41.34
77975;BME280;67164;51.202;0.278;2023-07-22T02:26:14;101068.77;;;24.42;41.38
77975;BME280;67164;51.202;0.278;2023-07-22T02:28:40;101066.12;;;24.69;41.31
77975;BME280;67164;51.202;0.278;2023-07-22T02:31:06;101063.73;;;24.57;41.46
77975;BME280;67164;51.202;0.278;2023-07-22T02:33:32;101064.44;;;24.32;41.45
77975;BME280;67164;51.202;0.278;2023-07-22T02:35:58;101060.61;;;24.71;41.28
77975;BME280;67164;51.202;0.278;2023-07-22T02:38:23;101062.05;;;24.36;41.45
77975;BME280;67164;51.202;0.278;2023-07-22T02:40:49;101055.78;;;24.44;41.32
77975;BME280;67164;51.202;0.278;2023-07-22T02:43:15;101054.57;;;24.36;41.44
77975;BME280;67164;51.202;0.278;2023-07-22T02:45:41;101055.46;;;24.61;41.33
77975;BME280;67164;51.202;0.278;2023-07-22T02:48:07;101059.16;;;24.59;41.35
77975;BME280;67164;51.202;0.278;2023-07-22T02:50:32;101057.73;;;24.49;41.51
77975;BME280;67164;51.202;0.278;2023-07-22T02:52:58;101059.69;;;24.50;41.52
77975;BME280;67164;51.202;0.278;2023-07-22T02:55:24;101058.58;;;24.40;41.33
77975;BME280;67164;51.202;0.278;2023-07-22T02:57:50;101055.71;;;24.22;41.62
77975;BME280;67164;51.202;0.278;2023-07-22T03:00:17;101055.99;;;24.53;41.39
77975;BME280;67164;51.202;0.278;2023-07-22T03:02:41;101055.64;;;24.15;41.62
77975;BME280;67164;51.202;0.278;2023-07-22T03:05:08;101057.09;;;24.22;41.46
77975;BME280;67164;51.202;0.278;2023-07-22T03:07:33;101056.42;;;24.17;41.55
77975;BME280;67164;51.202;0.278;2023-07-22T03:09:59;101056.83;;;24.30;41.60
77975;BME280;67164;51.202;0.278;2023-07-22T03:12:24;101057.44;;;24.36;41.63
77975;BME280;67164;51.202;0.278;2023-07-22T03:14:50;101058.85;;;24.44;41.50
77975;BME280;67164;51.202;0.278;2023-07-22T03:17:18;101059.16;;;24.48;41.44
77975;BME280;67164;51.202;0.278;2023-07-22T03:19:42;101060.30;;;24.21;41.36
77975;BME280;67164;51.202;0.278;2023-07-22T03:22:07;101062.09;;;23.96;41.85
77975;BME280;67164;51.202;0.278;2023-07-22T03:24:33;101062.29;;;24.19;41.42
77975;BME280;67164;51.202;0.278;2023-07-22T03:26:59;101065.51;;;24.07;41.62
77975;BME280;67164;51.202;0.278;2023-07-22T03:29:25;101064.29;;;24.40;41.53
77975;BME280;67164;51.202;0.278;2023-07-22T03:31:51;101065.11;;;24.08;41.66
77975;BME280;67164;51.202;0.278;2023-07-22T03:34:17;101068.03;;;23.88;41.74
77975;BME280;67164;51.202;0.278;2023-07-22T03:36:43;101065.48;;;24.37;41.54
77975;BME280;67164;51.202;0.278;2023-07-22T03:39:08;101067.50;;;24.14;41.46
77975;BME280;67164;51.202;0.278;2023-07-22T03:41:34;101069.55;;;24.39;41.49
77975;BME280;67164;51.202;0.278;2023-07-22T03:44:00;101067.34;;;24.29;41.49
77975;BME280;67164;51.202;0.278;2023-07-22T03:46:26;101063.62;;;24.07;41.45
77975;BME280;67164;51.202;0.278;2023-07-22T03:48:51;101062.08;;;24.34;41.47
77975;BME280;67164;51.202;0.278;2023-07-22T03:51:17;101061.84;;;24.24;41.64
77975;BME280;67164;51.202;0.278;2023-07-22T03:53:43;101065.36;;;24.06;41.81
77975;BME280;67164;51.202;0.278;2023-07-22T03:56:09;101062.47;;;23.99;42.00
77975;BME280;67164;51.202;0.278;2023-07-22T03:58:35;101057.99;;;24.12;41.89
77975;BME280;67164;51.202;0.278;2023-07-22T04:01:00;101053.35;;;24.13;41.79
77975;BME280;67164;51.202;0.278;2023-07-22T04:03:26;101053.50;;;23.91;41.73
77975;BME280;67164;51.202;0.278;2023-07-22T04:05:54;101051.69;;;24.27;41.55
77975;BME280;67164;51.202;0.278;2023-07-22T04:08:18;101049.43;;;24.23;41.58
77975;BME280;67164;51.202;0.278;2023-07-22T04:10:52;101048.38;;;24.08;41.69
77975;BME280;67164;51.202;0.278;2023-07-22T04:13:09;101046.43;;;23.93;41.45
77975;BME280;67164;51.202;0.278;2023-07-22T04:15:35;101042.54;;;24.09;41.62
77975;BME280;67164;51.202;0.278;2023-07-22T04:18:01;101042.28;;;23.86;41.70
77975;BME280;67164;51.202;0.278;2023-07-22T04:20:27;101039.99;;;24.16;41.49
77975;BME280;67164;51.202;0.278;2023-07-22T04:22:53;101038.10;;;23.91;41.59
77975;BME280;67164;51.202;0.278;2023-07-22T04:25:18;101041.41;;;24.11;41.72
77975;BME280;67164;51.202;0.278;2023-07-22T04:27:44;101041.24;;;23.85;41.77
77975;BME280;67164;51.202;0.278;2023-07-22T04:30:10;101045.60;;;24.00;41.83
77975;BME280;67164;51.202;0.278;2023-07-22T04:32:36;101043.07;;;23.74;41.53
77975;BME280;67164;51.202;0.278;2023-07-22T04:35:02;101042.14;;;23.72;41.82
77975;BME280;67164;51.202;0.278;2023-07-22T04:37:28;101036.07;;;24.09;41.69
77975;BME280;67164;51.202;0.278;2023-07-22T04:39:53;101039.08;;;23.70;42.01
77975;BME280;67164;51.202;0.278;2023-07-22T04:42:19;101035.38;;;24.00;41.96
77975;BME280;67164;51.202;0.278;2023-07-22T04:44:45;101038.50;;;24.06;41.63
77975;BME280;67164;51.202;0.278;2023-07-22T04:47:11;101038.27;;;24.13;41.77
77975;BME280;67164;51.202;0.278;2023-07-22T04:49:37;101035.86;;;24.18;41.63
77975;BME280;67164;51.202;0.278;2023-07-22T04:52:03;101033.42;;;24.13;41.63
77975;BME280;67164;51.202;0.278;2023-07-22T04:54:28;101033.03;;;23.78;41.78
77975;BME280;67164;51.202;0.278;2023-07-22T04:56:54;101032.51;;;23.84;41.63
77975;BME280;67164;51.202;0.278;2023-07-22T04:59:20;101035.81;;;23.68;41.89
77975;BME280;67164;51.202;0.278;2023-07-22T05:01:45;101036.48;;;23.94;41.89
77975;BME280;67164;51.202;0.278;2023-07-22T05:04:11;101034.49;;;23.76;41.66
77975;BME280;67164;51.202;0.278;2023-07-22T05:06:37;101032.34;;;24.01;41.63
77975;BME280;67164;51.202;0.278;2023-07-22T05:09:03;101028.34;;;24.02;41.67
77975;BME280;67164;51.202;0.278;2023-07-22T05:11:28;101028.58;;;23.88;41.61
77975;BME280;67164;51.202;0.278;2023-07-22T05:13:54;101029.95;;;23.87;41.55
77975;BME280;67164;51.202;0.278;2023-07-22T05:16:20;101031.88;;;24.22;41.39
77975;BME280;67164;51.202;0.278;2023-07-22T05:18:46;101032.89;;;23.88;41.60
77975;BME280;67164;51.202;0.278;2023-07-22T05:21:12;101031.76;;;24.08;41.56
77975;BME280;67164;51.202;0.278;2023-07-22T05:23:38;101030.46;;;24.01;41.47
77975;BME280;67164;51.202;0.278;2023-07-22T05:26:03;101032.74;;;23.99;41.64
77975;BME280;67164;51.202;0.278;2023-07-22T05:28:29;101032.40;;;24.11;41.52
77975;BME280;67164;51.202;0.278;2023-07-22T05:30:56;101032.60;;;24.05;41.59
77975;BME280;67164;51.202;0.278;2023-07-22T05:33:20;101027.61;;;24.10;41.50
77975;BME280;67164;51.202;0.278;2023-07-22T05:35:46;101027.68;;;23.97;41.61
77975;BME280;67164;51.202;0.278;2023-07-22T05:38:12;101026.95;;;24.06;41.49
77975;BME280;67164;51.202;0.278;2023-07-22T05:40:38;101029.16;;;24.05;41.53
77975;BME280;67164;51.202;0.278;2023-07-22T05:43:03;101030.28;;;24.01;41.57
77975;BME280;67164;51.202;0.278;2023-07-22T05:45:29;101031.32;;;24.09;41.53
77975;BME280;67164;51.202;0.278;2023-07-22T05:47:55;101029.23;;;24.05;41.56
77975;BME280;67164;51.202;0.278;2023-07-22T05:50:21;101030.34;;;23.84;41.84
77975;BME280;67164;51.202;0.278;2023-07-22T05:52:47;101027.23;;;23.69;41.77
77975;BME280;67164;51.202;0.278;2023-07-22T05:55:12;101022.55;;;23.91;41.81
77975;BME280;67164;51.202;0.278;2023-07-22T05:57:38;101022.67;;;23.90;41.77
77975;BME280;67164;51.202;0.278;2023-07-22T06:00:05;101023.12;;;23.72;41.82
77975;BME280;67164;51.202;0.278;2023-07-22T06:02:30;101023.19;;;23.99;41.76
77975;BME280;67164;51.202;0.278;2023-07-22T06:04:56;101023.26;;;23.86;41.55
77975;BME280;67164;51.202;0.278;2023-07-22T06:07:21;101019.78;;;23.86;41.59
77975;BME280;67164;51.202;0.278;2023-07-22T06:09:47;101016.77;;;23.92;41.77
77975;BME280;67164;51.202;0.278;2023-07-22T06:12:13;101014.42;;;24.07;41.56
77975;BME280;67164;51.202;0.278;2023-07-22T06:14:39;101010.29;;;24.04;41.54
77975;BME280;67164;51.202;0.278;2023-07-22T06:17:05;101009.17;;;24.03;41.65
77975;BME280;67164;51.202;0.278;2023-07-22T06:19:30;101005.11;;;23.95;41.80
77975;BME280;67164;51.202;0.278;2023-07-22T06:21:56;101002.70;;;24.01;41.72
77975;BME280;67164;51.202;0.278;2023-07-22T06:24:22;101000.37;;;24.12;41.57
77975;BME280;67164;51.202;0.278;2023-07-22T06:26:48;100997.39;;;24.02;41.66
77975;BME280;67164;51.202;0.278;2023-07-22T06:29:14;100997.33;;;24.13;41.54
77975;BME280;67164;51.202;0.278;2023-07-22T06:31:39;100999.36;;;24.25;41.46
77975;BME280;67164;51.202;0.278;2023-07-22T06:34:05;101002.54;;;23.80;41.72
77975;BME280;67164;51.202;0.278;2023-07-22T06:36:31;101002.35;;;23.97;41.84
77975;BME280;67164;51.202;0.278;2023-07-22T06:38:57;101002.96;;;23.90;41.91
77975;BME280;67164;51.202;0.278;2023-07-22T06:41:23;101006.49;;;23.62;41.94
77975;BME280;67164;51.202;0.278;2023-07-22T06:43:48;101000.18;;;23.98;41.83
77975;BME280;67164;51.202;0.278;2023-07-22T06:46:14;101000.44;;;23.96;41.81
77975;BME280;67164;51.202;0.278;2023-07-22T06:48:40;101000.22;;;23.99;41.81
77975;BME280;67164;51.202;0.278;2023-07-22T06:51:07;101001.56;;;23.70;41.89
77975;BME280;67164;51.202;0.278;2023-07-22T06:53:32;101002.67;;;24.35;41.67
77975;BME280;67164;51.202;0.278;2023-07-22T06:55:57;101000.62;;;24.06;41.66
77975;BME280;67164;51.202;0.278;2023-07-22T06:58:23;100995.74;;;24.05;41.74
77975;BME280;67164;51.202;0.278;2023-07-22T07:00:53;100997.23;;;24.13;41.68
77975;BME280;67164;51.202;0.278;2023-07-22T07:03:15;100992.48;;;23.95;41.70
77975;BME280;67164;51.202;0.278;2023-07-22T07:05:40;100987.01;;;24.20;41.67
77975;BME280;67164;51.202;0.278;2023-07-22T07:08:06;100986.10;;;23.88;41.82
77975;BME280;67164;51.202;0.278;2023-07-22T07:10:37;100989.46;;;24.08;42.04
77975;BME280;67164;51.202;0.278;2023-07-22T07:12:58;100992.23;;;23.89;41.91
77975;BME280;67164;51.202;0.278;2023-07-22T07:15:24;100996.94;;;24.17;41.86
77975;BME280;67164;51.202;0.278;2023-07-22T07:17:49;100996.94;;;23.95;41.91
77975;BME280;67164;51.202;0.278;2023-07-22T07:20:15;100992.64;;;24.18;41.93
77975;BME280;67164;51.202;0.278;2023-07-22T07:22:41;100991.81;;;24.15;42.09
77975;BME280;67164;51.202;0.278;2023-07-22T07:25:07;100988.30;;;24.27;41.79
77975;BME280;67164;51.202;0.278;2023-07-22T07:27:33;100991.70;;;23.93;41.99
77975;BME280;67164;51.202;0.278;2023-07-22T07:29:58;100989.58;;;24.34;41.69
77975;BME280;67164;51.202;0.278;2023-07-22T07:32:24;100990.76;;;24.28;41.87
77975;BME280;67164;51.202;0.278;2023-07-22T07:34:50;100992.26;;;24.35;41.81
77975;BME280;67164;51.202;0.278;2023-07-22T07:37:16;100991.69;;;24.30;42.01
77975;BME280;67164;51.202;0.278;2023-07-22T07:39:42;100992.00;;;24.44;42.07
77975;BME280;67164;51.202;0.278;2023-07-22T07:42:07;100988.88;;;24.32;42.04
77975;BME280;67164;51.202;0.278;2023-07-22T07:44:33;100984.10;;;24.52;42.07
77975;BME280;67164;51.202;0.278;2023-07-22T07:46:59;100983.50;;;24.33;42.57
77975;BME280;67164;51.202;0.278;2023-07-22T07:49:25;100988.40;;;24.43;42.63
77975;BME280;67164;51.202;0.278;2023-07-22T07:51:50;100985.46;;;24.64;42.45
77975;BME280;67164;51.202;0.278;2023-07-22T07:54:16;100987.62;;;24.75;42.35
77975;BME280;67164;51.202;0.278;2023-07-22T07:56:42;100982.71;;;24.38;42.51
77975;BME280;67164;51.202;0.278;2023-07-22T07:59:08;100975.55;;;24.36;42.45
77975;BME280;67164;51.202;0.278;2023-07-22T08:01:34;100976.69;;;24.60;42.59
77975;BME280;67164;51.202;0.278;2023-07-22T08:03:59;100973.89;;;24.63;42.49
77975;BME280;67164;51.202;0.278;2023-07-22T08:06:25;100973.86;;;24.66;42.38
77975;BME280;67164;51.202;0.278;2023-07-22T08:08:51;100974.72;;;24.62;42.38
77975;BME280;67164;51.202;0.278;2023-07-22T08:11:17;100973.31;;;24.17;42.37
77975;BME280;67164;51.202;0.278;2023-07-22T08:13:43;100972.22;;;24.75;42.24
77975;BME280;67164;51.202;0.278;2023-07-22T08:16:10;100973.29;;;24.63;42.11
77975;BME280;67164;51.202;0.278;2023-07-22T08:18:35;100971.21;;;24.75;42.02
77975;BME280;67164;51.202;0.278;2023-07-22T08:21:01;100966.75;;;24.77;42.03
77975;BME280;67164;51.202;0.278;2023-07-22T08:23:26;100962.25;;;24.68;42.23
77975;BME280;67164;51.202;0.278;2023-07-22T08:25:51;100960.72;;;24.84;42.18
77975;BME280;67164;51.202;0.278;2023-07-22T08:28:17;100958.63;;;24.73;42.49
77975;BME280;67164;51.202;0.278;2023-07-22T08:30:44;100957.35;;;25.02;42.23
77975;BME280;67164;51.202;0.278;2023-07-22T08:33:10;100956.57;;;24.84;42.29
77975;BME280;67164;51.202;0.278;2023-07-22T08:35:34;100960.65;;;24.85;42.39
77975;BME280;67164;51.202;0.278;2023-07-22T08:38:00;100954.14;;;24.90;42.38
77975;BME280;67164;51.202;0.278;2023-07-22T08:40:26;100960.92;;;24.67;42.48
77975;BME280;67164;51.202;0.278;2023-07-22T08:42:52;100952.58;;;24.97;42.40
77975;BME280;67164;51.202;0.278;2023-07-22T08:45:19;100944.57;;;25.20;42.46
77975;BME280;67164;51.202;0.278;2023-07-22T08:47:46;100942.78;;;24.98;42.57
77975;BME280;67164;51.202;0.278;2023-07-22T08:50:10;100940.20;;;24.97;42.66
77975;BME280;67164;51.202;0.278;2023-07-22T08:52:35;100941.55;;;25.18;42.79
77975;BME280;67164;51.202;0.278;2023-07-22T08:55:01;100937.45;;;24.87;43.04
77975;BME280;67164;51.202;0.278;2023-07-22T08:57:27;100937.90;;;24.85;43.18
77975;BME280;67164;51.202;0.278;2023-07-22T08:59:53;100938.91;;;24.68;43.53
77975;BME280;67164;51.202;0.278;2023-07-22T09:02:18;100938.68;;;24.89;43.34
77975;BME280;67164;51.202;0.278;2023-07-22T09:04:44;100941.46;;;24.54;43.68
77975;BME280;67164;51.202;0.278;2023-07-22T09:07:11;100946.14;;;24.68;43.85
77975;BME280;67164;51.202;0.278;2023-07-22T09:09:36;100949.27;;;24.98;43.35
77975;BME280;67164;51.202;0.278;2023-07-22T09:12:02;100944.73;;;24.89;43.55
77975;BME280;67164;51.202;0.278;2023-07-22T09:14:28;100935.14;;;24.90;44.00
77975;BME280;67164;51.202;0.278;2023-07-22T09:16:53;100929.62;;;25.26;43.71
77975;BME280;67164;51.202;0.278;2023-07-22T09:19:19;100927.98;;;24.76;44.13
77975;BME280;67164;51.202;0.278;2023-07-22T09:21:44;100919.59;;;24.94;43.98
77975;BME280;67164;51.202;0.278;2023-07-22T09:24:20;100916.80;;;25.24;43.89
77975;BME280;67164;51.202;0.278;2023-07-22T09:26:36;100916.17;;;25.13;44.01
77975;BME280;67164;51.202;0.278;2023-07-22T09:29:02;100918.70;;;24.86;43.97
77975;BME280;67164;51.202;0.278;2023-07-22T09:31:28;100916.96;;;24.96;43.64
77975;BME280;67164;51.202;0.278;2023-07-22T09:33:54;100921.14;;;25.01;43.54
77975;BME280;67164;51.202;0.278;2023-07-22T09:36:19;100922.62;;;25.24;43.48
77975;BME280;67164;51.202;0.278;2023-07-22T09:38:45;100919.76;;;24.90;43.47
77975;BME280;67164;51.202;0.278;2023-07-22T09:41:11;100921.54;;;24.98;43.08
77975;BME280;67164;51.202;0.278;2023-07-22T09:43:38;100918.25;;;25.17;43.13
77975;BME280;67164;51.202;0.278;2023-07-22T09:46:06;100920.32;;;24.95;43.04
77975;BME280;67164;51.202;0.278;2023-07-22T09:48:28;100922.77;;;24.99;43.01
77975;BME280;67164;51.202;0.278;2023-07-22T09:50:56;100924.05;;;24.59;43.45
77975;BME280;67164;51.202;0.278;2023-07-22T09:53:20;100919.03;;;25.00;43.24
77975;BME280;67164;51.202;0.278;2023-07-22T09:55:45;100923.85;;;24.95;43.37
77975;BME280;67164;51.202;0.278;2023-07-22T09:58:12;100928.95;;;24.71;43.30
77975;BME280;67164;51.202;0.278;2023-07-22T10:00:37;100930.28;;;24.56;43.85
77975;BME280;67164;51.202;0.278;2023-07-22T10:03:04;100931.39;;;25.02;43.41
77975;BME280;67164;51.202;0.278;2023-07-22T10:05:28;100933.54;;;25.23;43.30
77975;BME280;67164;51.202;0.278;2023-07-22T10:07:56;100932.42;;;25.08;43.01
77975;BME280;67164;51.202;0.278;2023-07-22T10:10:22;100935.71;;;24.88;42.98
77975;BME280;67164;51.202;0.278;2023-07-22T10:12:46;100930.47;;;24.67;42.73
77975;BME280;67164;51.202;0.278;2023-07-22T10:15:13;100929.87;;;24.91;42.90
77975;BME280;67164;51.202;0.278;2023-07-22T10:17:38;100926.33;;;24.74;43.24
77975;BME280;67164;51.202;0.278;2023-07-22T10:20:04;100924.33;;;25.18;43.45
77975;BME280;67164;51.202;0.278;2023-07-22T10:22:29;100928.98;;;24.96;43.44
77975;BME280;67164;51.202;0.278;2023-07-22T10:24:55;100927.43;;;24.72;43.47
77975;BME280;67164;51.202;0.278;2023-07-22T10:27:21;100927.40;;;25.05;43.24
77975;BME280;67164;51.202;0.278;2023-07-22T10:29:46;100920.74;;;25.01;43.10
77975;BME280;67164;51.202;0.278;2023-07-22T10:32:12;100923.04;;;24.90;42.77
77975;BME280;67164;51.202;0.278;2023-07-22T10:34:38;100921.95;;;25.22;42.42
77975;BME280;67164;51.202;0.278;2023-07-22T10:37:04;100920.82;;;24.85;42.64
77975;BME280;67164;51.202;0.278;2023-07-22T10:39:30;100924.95;;;25.22;42.56
77975;BME280;67164;51.202;0.278;2023-07-22T10:42:01;100919.79;;;25.03;42.51
77975;BME280;67164;51.202;0.278;2023-07-22T10:44:21;100922.34;;;25.05;42.48
77975;BME280;67164;51.202;0.278;2023-07-22T10:46:56;100921.77;;;24.99;42.64
77975;BME280;67164;51.202;0.278;2023-07-22T10:49:14;100913.05;;;24.83;42.85
77975;BME280;67164;51.202;0.278;2023-07-22T10:51:38;100910.32;;;24.73;42.98
77975;BME280;67164;51.202;0.278;2023-07-22T10:54:11;100919.39;;;24.70;43.27
77975;BME280;67164;51.202;0.278;2023-07-22T10:56:30;100922.77;;;24.72;42.97
77975;BME280;67164;51.202;0.278;2023-07-22T10:58:58;100910.87;;;24.99;43.06
77975;BME280;67164;51.202;0.278;2023-07-22T11:01:23;100917.09;;;24.95;42.77
77975;BME280;67164;51.202;0.278;2023-07-22T11:06:15;100906.56;;;24.75;43.01
77975;BME280;67164;51.202;0.278;2023-07-22T11:08:40;100906.09;;;24.78;43.10
77975;BME280;67164;51.202;0.278;2023-07-22T11:11:05;100904.09;;;24.86;43.06
77975;BME280;67164;51.202;0.278;2023-07-22T11:13:37;100901.02;;;24.96;42.88
77975;BME280;67164;51.202;0.278;2023-07-22T11:15:59;100897.82;;;25.14;42.95
77975;BME280;67164;51.202;0.278;2023-07-22T11:18:22;100898.87;;;25.20;42.84
77975;BME280;67164;51.202;0.278;2023-07-22T11:20:53;100896.38;;;24.68;43.25
77975;BME280;67164;51.202;0.278;2023-07-22T11:23:14;100890.58;;;24.53;43.40
77975;BME280;67164;51.202;0.278;2023-07-22T11:25:39;100892.15;;;24.95;43.23
77975;BME280;67164;51.202;0.278;2023-07-22T11:28:05;100885.77;;;24.89;42.96
77975;BME280;67164;51.202;0.278;2023-07-22T11:30:31;100885.99;;;24.70;42.90
77975;BME280;67164;51.202;0.278;2023-07-22T11:32:57;100883.45;;;24.95;42.91
77975;BME280;67164;51.202;0.278;2023-07-22T11:35:23;100884.04;;;24.72;42.87
77975;BME280;67164;51.202;0.278;2023-07-22T11:37:48;100879.45;;;25.17;42.98
77975;BME280;67164;51.202;0.278;2023-07-22T11:40:14;100881.88;;;23.99;44.83
77975;BME280;67164;51.202;0.278;2023-07-22T11:42:40;100881.38;;;24.10;46.56
77975;BME280;67164;51.202;0.278;2023-07-22T11:45:07;100879.56;;;23.65;48.80
77975;BME280;67164;51.202;0.278;2023-07-22T11:47:32;100877.86;;;23.38;49.55
77975;BME280;67164;51.202;0.278;2023-07-22T11:49:58;100879.85;;;23.88;47.98
77975;BME280;67164;51.202;0.278;2023-07-22T11:52:23;100874.03;;;24.32;46.88
77975;BME280;67164;51.202;0.278;2023-07-22T11:54:48;100866.62;;;24.60;45.81
77975;BME280;67164;51.202;0.278;2023-07-22T11:57:14;100865.58;;;24.89;45.03
77975;BME280;67164;51.202;0.278;2023-07-22T11:59:44;100864.75;;;24.95;45.29
77975;BME280;67164;51.202;0.278;2023-07-22T12:02:05;100862.16;;;24.23;46.36
77975;BME280;67164;51.202;0.278;2023-07-22T12:04:30;100866.62;;;24.21;45.85
77975;BME280;67164;51.202;0.278;2023-07-22T12:06:55;100865.41;;;24.43;45.48
77975;BME280;67164;51.202;0.278;2023-07-22T12:09:21;100870.26;;;25.12;44.83
77975;BME280;67164;51.202;0.278;2023-07-22T12:11:46;100870.68;;;24.71;45.18
77975;BME280;67164;51.202;0.278;2023-07-22T12:14:13;100869.28;;;25.05;45.30
77975;BME280;67164;51.202;0.278;2023-07-22T12:16:39;100870.25;;;24.41;45.56
77975;BME280;67164;51.202;0.278;2023-07-22T12:19:03;100870.80;;;24.62;45.64
77975;BME280;67164;51.202;0.278;2023-07-22T12:21:28;100869.98;;;25.35;44.95
77975;BME280;67164;51.202;0.278;2023-07-22T12:23:54;100874.53;;;24.99;44.98
77975;BME280;67164;51.202;0.278;2023-07-22T12:26:20;100872.86;;;25.01;45.22
77975;BME280;67164;51.202;0.278;2023-07-22T12:28:45;100876.66;;;25.01;45.21
77975;BME280;67164;51.202;0.278;2023-07-22T12:31:11;100877.38;;;25.00;44.88
77975;BME280;67164;51.202;0.278;2023-07-22T12:33:37;100878.46;;;25.01;44.81
77975;BME280;67164;51.202;0.278;2023-07-22T12:36:03;100872.87;;;25.11;44.68
77975;BME280;67164;51.202;0.278;2023-07-22T12:38:29;100879.40;;;25.06;44.69
77975;BME280;67164;51.202;0.278;2023-07-22T12:40:54;100877.34;;;25.44;44.51
77975;BME280;67164;51.202;0.278;2023-07-22T12:43:20;100880.53;;;25.09;44.70